Aviation Digital Data Service (ADDS)

Output produced by METARs form (1339 UTC 10 July 2020)
found at http://www.aviationweather.gov/metar/data/
 
KFTY 101253Z 00000KT 10SM CLR 24/22 A2998 RMK AO2 SLP142 T02440222
KFTY 101127Z 1012/1112 28003KT 1/2SM FG OVC002 
     FM101300 VRB03KT P6SM SCT040 
     FM101600 28006KT P6SM SCT050 
     FM111000 32005KT P6SM SKC